sensor_id;sensor_type;location;lat;lon;timestamp;temperature;humidity
20200;DHT22;36284;37.236;-121.934;2022-10-04T00:04:57;24.10;99.90
20200;DHT22;36284;37.236;-121.934;2022-10-04T00:07:51;24.10;99.90
20200;DHT22;36284;37.236;-121.934;2022-10-04T00:10:23;24.00;99.90
20200;DHT22;36284;37.236;-121.934;2022-10-04T00:12:54;24.00;99.90
20200;DHT22;36284;37.236;-121.934;2022-10-04T00:15:26;24.00;99.90
20200;DHT22;36284;37.236;-121.934;2022-10-04T00:23:25;23.50;99.90
20200;DHT22;36284;37.236;-121.934;2022-10-04T00:26:05;23.10;99.90
20200;DHT22;36284;37.236;-121.934;2022-10-04T00:33:53;23.30;99.90
20200;DHT22;36284;37.236;-121.934;2022-10-04T00:50:20;22.50;99.90
20200;DHT22;36284;37.236;-121.934;2022-10-04T00:52:52;22.40;99.90
20200;DHT22;36284;37.236;-121.934;2022-10-04T00:55:30;22.30;99.90
20200;DHT22;36284;37.236;-121.934;2022-10-04T00:58:03;22.20;99.90
20200;DHT22;36284;37.236;-121.934;2022-10-04T01:00:31;22.10;99.90
20200;DHT22;36284;37.236;-121.934;2022-10-04T01:03:22;22.10;99.90
20200;DHT22;36284;37.236;-121.934;2022-10-04T01:05:56;21.90;99.90
20200;DHT22;36284;37.236;-121.934;2022-10-04T01:08:31;21.80;99.90
20200;DHT22;36284;37.236;-121.934;2022-10-04T01:11:38;21.80;99.90
20200;DHT22;36284;37.236;-121.934;2022-10-04T01:17:03;21.60;99.90
20200;DHT22;36284;37.236;-121.934;2022-10-04T01:19:31;21.50;99.90
20200;DHT22;36284;37.236;-121.934;2022-10-04T01:24:38;21.20;99.90
20200;DHT22;36284;37.236;-121.934;2022-10-04T01:27:36;21.20;99.90
20200;DHT22;36284;37.236;-121.934;2022-10-04T01:30:14;21.10;99.90
20200;DHT22;36284;37.236;-121.934;2022-10-04T01:32:42;21.00;99.90
20200;DHT22;36284;37.236;-121.934;2022-10-04T01:35:11;20.90;99.90
20200;DHT22;36284;37.236;-121.934;2022-10-04T01:37:39;20.70;99.90
20200;DHT22;36284;37.236;-121.934;2022-10-04T01:40:09;20.60;99.90
20200;DHT22;36284;37.236;-121.934;2022-10-04T01:42:48;20.60;99.90
20200;DHT22;36284;37.236;-121.934;2022-10-04T01:45:34;20.40;99.90
20200;DHT22;36284;37.236;-121.934;2022-10-04T01:48:09;20.30;99.90
20200;DHT22;36284;37.236;-121.934;2022-10-04T01:50:43;20.20;99.90
20200;DHT22;36284;37.236;-121.934;2022-10-04T01:53:21;20.00;99.90
20200;DHT22;36284;37.236;-121.934;2022-10-04T01:56:07;19.90;99.90
20200;DHT22;36284;37.236;-121.934;2022-10-04T01:58:46;19.90;99.90
20200;DHT22;36284;37.236;-121.934;2022-10-04T02:01:51;19.70;99.90
20200;DHT22;36284;37.236;-121.934;2022-10-04T02:04:38;19.70;99.90
20200;DHT22;36284;37.236;-121.934;2022-10-04T02:07:13;19.60;99.90
20200;DHT22;36284;37.236;-121.934;2022-10-04T02:09:45;19.50;99.90
20200;DHT22;36284;37.236;-121.934;2022-10-04T02:12:16;19.30;99.90
20200;DHT22;36284;37.236;-121.934;2022-10-04T02:14:50;19.30;99.90
20200;DHT22;36284;37.236;-121.934;2022-10-04T02:17:29;19.20;99.90
20200;DHT22;36284;37.236;-121.934;2022-10-04T02:19:58;19.10;99.90
20200;DHT22;36284;37.236;-121.934;2022-10-04T02:22:27;19.00;99.90
20200;DHT22;36284;37.236;-121.934;2022-10-04T02:24:55;19.00;99.90
20200;DHT22;36284;37.236;-121.934;2022-10-04T02:27:27;18.90;99.90
20200;DHT22;36284;37.236;-121.934;2022-10-04T02:30:03;18.80;99.90
20200;DHT22;36284;37.236;-121.934;2022-10-04T02:32:32;18.80;99.90
20200;DHT22;36284;37.236;-121.934;2022-10-04T02:35:18;18.70;99.90
20200;DHT22;36284;37.236;-121.934;2022-10-04T02:37:53;18.60;99.90
20200;DHT22;36284;37.236;-121.934;2022-10-04T02:40:25;18.50;99.90
20200;DHT22;36284;37.236;-121.934;2022-10-04T02:46:17;18.20;99.90
20200;DHT22;36284;37.236;-121.934;2022-10-04T02:48:52;18.10;99.90
20200;DHT22;36284;37.236;-121.934;2022-10-04T02:56:39;18.00;99.90
20200;DHT22;36284;37.236;-121.934;2022-10-04T02:59:13;17.90;99.90
20200;DHT22;36284;37.236;-121.934;2022-10-04T03:01:52;17.80;99.90
20200;DHT22;36284;37.236;-121.934;2022-10-04T03:04:24;17.80;99.90
20200;DHT22;36284;37.236;-121.934;2022-10-04T03:06:52;17.70;99.90
20200;DHT22;36284;37.236;-121.934;2022-10-04T03:09:21;17.50;99.90
20200;DHT22;36284;37.236;-121.934;2022-10-04T03:11:50;17.40;99.90
20200;DHT22;36284;37.236;-121.934;2022-10-04T03:14:22;17.30;99.90
20200;DHT22;36284;37.236;-121.934;2022-10-04T03:16:52;17.30;99.90
20200;DHT22;36284;37.236;-121.934;2022-10-04T03:19:22;17.10;99.90
20200;DHT22;36284;37.236;-121.934;2022-10-04T03:21:52;16.90;99.90
20200;DHT22;36284;37.236;-121.934;2022-10-04T03:24:30;16.80;99.90
20200;DHT22;36284;37.236;-121.934;2022-10-04T03:26:59;16.60;99.90
20200;DHT22;36284;37.236;-121.934;2022-10-04T03:29:28;16.60;99.90
20200;DHT22;36284;37.236;-121.934;2022-10-04T03:32:00;16.40;99.90
20200;DHT22;36284;37.236;-121.934;2022-10-04T03:34:36;16.40;99.90
20200;DHT22;36284;37.236;-121.934;2022-10-04T03:37:15;16.30;99.90
20200;DHT22;36284;37.236;-121.934;2022-10-04T03:39:48;16.30;99.90
20200;DHT22;36284;37.236;-121.934;2022-10-04T03:44:46;16.30;99.90
20200;DHT22;36284;37.236;-121.934;2022-10-04T03:47:21;16.20;99.90
20200;DHT22;36284;37.236;-121.934;2022-10-04T03:49:50;16.20;99.90
20200;DHT22;36284;37.236;-121.934;2022-10-04T03:52:35;16.10;99.90
20200;DHT22;36284;37.236;-121.934;2022-10-04T03:55:05;16.00;99.90
20200;DHT22;36284;37.236;-121.934;2022-10-04T03:57:34;15.90;99.90
20200;DHT22;36284;37.236;-121.934;2022-10-04T04:00:04;15.80;99.90
20200;DHT22;36284;37.236;-121.934;2022-10-04T04:02:40;15.80;99.90
20200;DHT22;36284;37.236;-121.934;2022-10-04T04:05:25;15.80;99.90
20200;DHT22;36284;37.236;-121.934;2022-10-04T04:10:27;15.80;99.90
20200;DHT22;36284;37.236;-121.934;2022-10-04T04:15:41;15.60;99.90
20200;DHT22;36284;37.236;-121.934;2022-10-04T04:18:16;15.60;99.90
20200;DHT22;36284;37.236;-121.934;2022-10-04T04:20:45;15.50;99.90
20200;DHT22;36284;37.236;-121.934;2022-10-04T04:23:23;15.50;99.90
20200;DHT22;36284;37.236;-121.934;2022-10-04T04:25:56;15.50;99.90
20200;DHT22;36284;37.236;-121.934;2022-10-04T04:28:33;15.60;99.90
20200;DHT22;36284;37.236;-121.934;2022-10-04T04:33:35;15.50;99.90
20200;DHT22;36284;37.236;-121.934;2022-10-04T04:36:11;15.40;99.90
20200;DHT22;36284;37.236;-121.934;2022-10-04T04:38:38;15.20;99.90
20200;DHT22;36284;37.236;-121.934;2022-10-04T04:41:29;15.30;99.90
20200;DHT22;36284;37.236;-121.934;2022-10-04T04:43:57;15.30;99.90
20200;DHT22;36284;37.236;-121.934;2022-10-04T04:46:24;15.30;99.90
20200;DHT22;36284;37.236;-121.934;2022-10-04T04:48:58;15.30;99.90
20200;DHT22;36284;37.236;-121.934;2022-10-04T04:51:28;15.20;99.90
20200;DHT22;36284;37.236;-121.934;2022-10-04T04:53:57;15.30;99.90
20200;DHT22;36284;37.236;-121.934;2022-10-04T04:56:27;15.20;99.90
20200;DHT22;36284;37.236;-121.934;2022-10-04T04:58:56;15.20;99.90
20200;DHT22;36284;37.236;-121.934;2022-10-04T05:06:33;15.20;99.90
20200;DHT22;36284;37.236;-121.934;2022-10-04T05:09:01;15.10;99.90
20200;DHT22;36284;37.236;-121.934;2022-10-04T05:11:31;15.10;99.90
20200;DHT22;36284;37.236;-121.934;2022-10-04T05:14:17;15.10;99.90
20200;DHT22;36284;37.236;-121.934;2022-10-04T05:16:48;15.10;99.90
20200;DHT22;36284;37.236;-121.934;2022-10-04T05:21:48;15.00;99.90
20200;DHT22;36284;37.236;-121.934;2022-10-04T05:24:28;15.00;99.90
20200;DHT22;36284;37.236;-121.934;2022-10-04T05:27:02;15.00;99.90
20200;DHT22;36284;37.236;-121.934;2022-10-04T05:29:42;14.90;99.90
20200;DHT22;36284;37.236;-121.934;2022-10-04T05:32:28;14.90;99.90
20200;DHT22;36284;37.236;-121.934;2022-10-04T05:35:01;14.90;99.90
20200;DHT22;36284;37.236;-121.934;2022-10-04T05:42:50;14.70;99.90
20200;DHT22;36284;37.236;-121.934;2022-10-04T05:45:22;14.80;99.90
20200;DHT22;36284;37.236;-121.934;2022-10-04T05:47:58;14.70;99.90
20200;DHT22;36284;37.236;-121.934;2022-10-04T05:50:38;14.70;99.90
20200;DHT22;36284;37.236;-121.934;2022-10-04T05:53:19;14.70;99.90
20200;DHT22;36284;37.236;-121.934;2022-10-04T06:01:43;14.50;99.90
20200;DHT22;36284;37.236;-121.934;2022-10-04T06:10:00;14.40;99.90
20200;DHT22;36284;37.236;-121.934;2022-10-04T06:18:59;14.20;99.90
20200;DHT22;36284;37.236;-121.934;2022-10-04T06:24:16;14.10;99.90
20200;DHT22;36284;37.236;-121.934;2022-10-04T06:27:40;14.10;99.90
20200;DHT22;36284;37.236;-121.934;2022-10-04T06:29:50;14.00;99.90
20200;DHT22;36284;37.236;-121.934;2022-10-04T06:35:21;14.00;99.90
20200;DHT22;36284;37.236;-121.934;2022-10-04T06:38:23;14.00;99.90
20200;DHT22;36284;37.236;-121.934;2022-10-04T06:41:16;14.00;99.90
20200;DHT22;36284;37.236;-121.934;2022-10-04T07:00:11;13.60;99.90
20200;DHT22;36284;37.236;-121.934;2022-10-04T07:02:41;13.60;99.90
20200;DHT22;36284;37.236;-121.934;2022-10-04T07:06:01;13.50;99.90
20200;DHT22;36284;37.236;-121.934;2022-10-04T07:08:13;13.50;99.90
20200;DHT22;36284;37.236;-121.934;2022-10-04T07:13:50;13.40;99.90
20200;DHT22;36284;37.236;-121.934;2022-10-04T07:16:34;13.50;99.90
20200;DHT22;36284;37.236;-121.934;2022-10-04T07:22:08;13.40;99.90
20200;DHT22;36284;37.236;-121.934;2022-10-04T07:27:09;13.30;99.90
20200;DHT22;36284;37.236;-121.934;2022-10-04T07:29:41;13.20;99.90
20200;DHT22;36284;37.236;-121.934;2022-10-04T07:32:34;13.10;99.90
20200;DHT22;36284;37.236;-121.934;2022-10-04T07:35:16;13.20;99.90
20200;DHT22;36284;37.236;-121.934;2022-10-04T07:40:34;13.40;99.90
20200;DHT22;36284;37.236;-121.934;2022-10-04T07:43:13;13.60;99.90
20200;DHT22;36284;37.236;-121.934;2022-10-04T07:45:46;13.70;99.90
20200;DHT22;36284;37.236;-121.934;2022-10-04T07:48:19;13.80;99.90
20200;DHT22;36284;37.236;-121.934;2022-10-04T07:53:48;14.00;99.90
20200;DHT22;36284;37.236;-121.934;2022-10-04T08:08:02;14.60;99.90
20200;DHT22;36284;37.236;-121.934;2022-10-04T08:13:43;14.70;99.90
20200;DHT22;36284;37.236;-121.934;2022-10-04T08:16:37;14.80;99.90
20200;DHT22;36284;37.236;-121.934;2022-10-04T08:19:23;14.80;99.90
20200;DHT22;36284;37.236;-121.934;2022-10-04T08:22:01;14.80;99.90
20200;DHT22;36284;37.236;-121.934;2022-10-04T08:24:36;14.90;99.90
20200;DHT22;36284;37.236;-121.934;2022-10-04T08:38:59;15.20;99.90
20200;DHT22;36284;37.236;-121.934;2022-10-04T08:47:27;15.30;99.90
20200;DHT22;36284;37.236;-121.934;2022-10-04T09:13:25;15.40;99.90
20200;DHT22;36284;37.236;-121.934;2022-10-04T09:15:54;15.50;99.90
20200;DHT22;36284;37.236;-121.934;2022-10-04T09:21:37;15.40;99.90
20200;DHT22;36284;37.236;-121.934;2022-10-04T09:24:31;15.50;99.90
20200;DHT22;36284;37.236;-121.934;2022-10-04T09:38:58;15.40;99.90
20200;DHT22;36284;37.236;-121.934;2022-10-04T09:53:04;15.30;99.90
20200;DHT22;36284;37.236;-121.934;2022-10-04T10:13:38;15.50;99.90
20200;DHT22;36284;37.236;-121.934;2022-10-04T10:16:23;15.50;99.90
20200;DHT22;36284;37.236;-121.934;2022-10-04T10:44:56;15.20;99.90
20200;DHT22;36284;37.236;-121.934;2022-10-04T10:48:12;15.20;99.90
20200;DHT22;36284;37.236;-121.934;2022-10-04T11:28:52;15.20;99.90
20200;DHT22;36284;37.236;-121.934;2022-10-04T11:37:51;15.20;99.90
20200;DHT22;36284;37.236;-121.934;2022-10-04T11:40:43;15.20;99.90
20200;DHT22;36284;37.236;-121.934;2022-10-04T11:53:31;15.20;99.90
20200;DHT22;36284;37.236;-121.934;2022-10-04T11:55:48;15.20;99.90
20200;DHT22;36284;37.236;-121.934;2022-10-04T12:04:07;15.20;99.90
20200;DHT22;36284;37.236;-121.934;2022-10-04T12:21:25;15.40;99.90
20200;DHT22;36284;37.236;-121.934;2022-10-04T12:39:12;15.30;99.90
20200;DHT22;36284;37.236;-121.934;2022-10-04T12:42:15;15.30;99.90
20200;DHT22;36284;37.236;-121.934;2022-10-04T12:50:10;15.30;99.90
20200;DHT22;36284;37.236;-121.934;2022-10-04T12:53:32;15.30;99.90
20200;DHT22;36284;37.236;-121.934;2022-10-04T13:01:19;15.30;99.90
20200;DHT22;36284;37.236;-121.934;2022-10-04T13:10:02;15.40;99.90
20200;DHT22;36284;37.236;-121.934;2022-10-04T13:13:02;15.50;99.90
20200;DHT22;36284;37.236;-121.934;2022-10-04T13:21:04;15.40;99.90
20200;DHT22;36284;37.236;-121.934;2022-10-04T13:26:11;15.40;99.90
20200;DHT22;36284;37.236;-121.934;2022-10-04T13:28:58;15.40;99.90
20200;DHT22;36284;37.236;-121.934;2022-10-04T13:37:18;15.40;99.90
20200;DHT22;36284;37.236;-121.934;2022-10-04T13:54:00;15.50;99.90
20200;DHT22;36284;37.236;-121.934;2022-10-04T13:57:00;15.50;99.90
20200;DHT22;36284;37.236;-121.934;2022-10-04T13:59:51;15.30;99.90
20200;DHT22;36284;37.236;-121.934;2022-10-04T14:47:20;15.20;99.90
20200;DHT22;36284;37.236;-121.934;2022-10-04T14:50:16;15.20;99.90
20200;DHT22;36284;37.236;-121.934;2022-10-04T14:53:16;15.20;99.90
20200;DHT22;36284;37.236;-121.934;2022-10-04T15:01:19;15.00;99.90
20200;DHT22;36284;37.236;-121.934;2022-10-04T15:07:19;15.10;99.90
20200;DHT22;36284;37.236;-121.934;2022-10-04T15:10:05;15.10;99.90
20200;DHT22;36284;37.236;-121.934;2022-10-04T15:12:44;15.20;99.90
20200;DHT22;36284;37.236;-121.934;2022-10-04T15:26:36;15.40;99.90
20200;DHT22;36284;37.236;-121.934;2022-10-04T15:29:27;15.20;99.90
20200;DHT22;36284;37.236;-121.934;2022-10-04T15:33:07;15.30;99.90
20200;DHT22;36284;37.236;-121.934;2022-10-04T15:35:19;15.40;99.90
20200;DHT22;36284;37.236;-121.934;2022-10-04T15:38:06;15.40;99.90
20200;DHT22;36284;37.236;-121.934;2022-10-04T15:43:36;15.10;99.90
20200;DHT22;36284;37.236;-121.934;2022-10-04T15:48:56;15.30;99.90
20200;DHT22;36284;37.236;-121.934;2022-10-04T15:54:45;15.40;99.90
20200;DHT22;36284;37.236;-121.934;2022-10-04T16:00:13;15.60;99.90
20200;DHT22;36284;37.236;-121.934;2022-10-04T16:02:50;15.70;99.90
20200;DHT22;36284;37.236;-121.934;2022-10-04T16:05:28;15.90;99.90
20200;DHT22;36284;37.236;-121.934;2022-10-04T16:10:54;15.80;99.90
20200;DHT22;36284;37.236;-121.934;2022-10-04T16:32:28;15.90;99.90
20200;DHT22;36284;37.236;-121.934;2022-10-04T16:35:02;16.10;99.90
20200;DHT22;36284;37.236;-121.934;2022-10-04T16:38:12;16.40;99.90
20200;DHT22;36284;37.236;-121.934;2022-10-04T16:56:25;16.30;99.90
20200;DHT22;36284;37.236;-121.934;2022-10-04T16:59:02;16.60;99.90
20200;DHT22;36284;37.236;-121.934;2022-10-04T17:10:38;16.50;99.90
20200;DHT22;36284;37.236;-121.934;2022-10-04T17:12:44;16.50;99.90
20200;DHT22;36284;37.236;-121.934;2022-10-04T17:17:54;16.70;99.90
20200;DHT22;36284;37.236;-121.934;2022-10-04T17:28:26;17.10;99.90
20200;DHT22;36284;37.236;-121.934;2022-10-04T17:34:06;17.20;99.90
20200;DHT22;36284;37.236;-121.934;2022-10-04T17:36:43;17.10;99.90
20200;DHT22;36284;37.236;-121.934;2022-10-04T17:53:30;18.00;99.90
20200;DHT22;36284;37.236;-121.934;2022-10-04T17:59:25;18.30;99.90
20200;DHT22;36284;37.236;-121.934;2022-10-04T18:02:28;18.60;99.90
20200;DHT22;36284;37.236;-121.934;2022-10-04T18:05:00;18.80;99.90
20200;DHT22;36284;37.236;-121.934;2022-10-04T18:07:43;18.80;99.90
20200;DHT22;36284;37.236;-121.934;2022-10-04T18:10:24;19.00;99.90
20200;DHT22;36284;37.236;-121.934;2022-10-04T18:15:40;20.00;99.90
20200;DHT22;36284;37.236;-121.934;2022-10-04T18:18:21;21.20;99.90
20200;DHT22;36284;37.236;-121.934;2022-10-04T18:23:28;21.20;99.90
20200;DHT22;36284;37.236;-121.934;2022-10-04T18:26:18;21.80;99.90
20200;DHT22;36284;37.236;-121.934;2022-10-04T18:28:48;22.10;99.90
20200;DHT22;36284;37.236;-121.934;2022-10-04T18:31:30;22.50;99.90
20200;DHT22;36284;37.236;-121.934;2022-10-04T18:37:11;21.90;99.90
20200;DHT22;36284;37.236;-121.934;2022-10-04T18:39:47;22.70;99.90
20200;DHT22;36284;37.236;-121.934;2022-10-04T18:44:55;22.70;99.90
20200;DHT22;36284;37.236;-121.934;2022-10-04T18:47:31;22.60;99.90
20200;DHT22;36284;37.236;-121.934;2022-10-04T18:50:13;22.70;99.90
20200;DHT22;36284;37.236;-121.934;2022-10-04T19:01:54;23.80;99.90
20200;DHT22;36284;37.236;-121.934;2022-10-04T19:26:39;24.50;99.90
20200;DHT22;36284;37.236;-121.934;2022-10-04T19:29:27;25.20;99.90
20200;DHT22;36284;37.236;-121.934;2022-10-04T19:32:24;25.20;99.90
20200;DHT22;36284;37.236;-121.934;2022-10-04T19:40:37;25.70;99.90
20200;DHT22;36284;37.236;-121.934;2022-10-04T19:54:51;25.90;99.90
20200;DHT22;36284;37.236;-121.934;2022-10-04T19:57:29;25.80;99.90
20200;DHT22;36284;37.236;-121.934;2022-10-04T19:59:57;25.70;99.90
20200;DHT22;36284;37.236;-121.934;2022-10-04T20:02:24;25.20;99.90
20200;DHT22;36284;37.236;-121.934;2022-10-04T20:04:51;26.10;99.90
20200;DHT22;36284;37.236;-121.934;2022-10-04T20:12:38;25.40;99.90
20200;DHT22;36284;37.236;-121.934;2022-10-04T20:15:47;25.10;99.90
20200;DHT22;36284;37.236;-121.934;2022-10-04T20:21:10;25.70;99.90
20200;DHT22;36284;37.236;-121.934;2022-10-04T20:26:35;25.20;99.90
20200;DHT22;36284;37.236;-121.934;2022-10-04T20:32:09;26.10;99.90
20200;DHT22;36284;37.236;-121.934;2022-10-04T20:37:04;26.30;99.90
20200;DHT22;36284;37.236;-121.934;2022-10-04T20:42:11;25.10;99.90
20200;DHT22;36284;37.236;-121.934;2022-10-04T20:44:53;25.40;99.90
20200;DHT22;36284;37.236;-121.934;2022-10-04T20:49:55;26.30;99.90
20200;DHT22;36284;37.236;-121.934;2022-10-04T20:52:28;26.00;99.90
20200;DHT22;36284;37.236;-121.934;2022-10-04T20:54:56;25.60;99.90
20200;DHT22;36284;37.236;-121.934;2022-10-04T20:57:28;25.50;99.90
20200;DHT22;36284;37.236;-121.934;2022-10-04T20:59:56;26.10;99.90
20200;DHT22;36284;37.236;-121.934;2022-10-04T21:02:25;26.10;99.90
20200;DHT22;36284;37.236;-121.934;2022-10-04T21:04:54;26.40;99.90
20200;DHT22;36284;37.236;-121.934;2022-10-04T21:07:37;26.10;99.90
20200;DHT22;36284;37.236;-121.934;2022-10-04T21:10:16;26.20;99.90
20200;DHT22;36284;37.236;-121.934;2022-10-04T21:12:44;25.50;99.90
20200;DHT22;36284;37.236;-121.934;2022-10-04T21:15:18;25.20;99.90
20200;DHT22;36284;37.236;-121.934;2022-10-04T21:20:48;25.60;99.90
20200;DHT22;36284;37.236;-121.934;2022-10-04T21:23:26;25.40;99.90
20200;DHT22;36284;37.236;-121.934;2022-10-04T21:26:17;25.70;99.90
20200;DHT22;36284;37.236;-121.934;2022-10-04T21:28:45;26.50;99.90
20200;DHT22;36284;37.236;-121.934;2022-10-04T21:31:12;26.50;99.90
20200;DHT22;36284;37.236;-121.934;2022-10-04T21:33:39;26.60;99.90
20200;DHT22;36284;37.236;-121.934;2022-10-04T21:36:06;26.30;99.90
20200;DHT22;36284;37.236;-121.934;2022-10-04T21:38:34;26.40;99.90
20200;DHT22;36284;37.236;-121.934;2022-10-04T21:41:01;26.10;99.90
20200;DHT22;36284;37.236;-121.934;2022-10-04T21:43:28;26.40;99.90
20200;DHT22;36284;37.236;-121.934;2022-10-04T21:45:55;26.20;99.90
20200;DHT22;36284;37.236;-121.934;2022-10-04T21:48:22;26.70;99.90
20200;DHT22;36284;37.236;-121.934;2022-10-04T21:50:51;26.70;99.90
20200;DHT22;36284;37.236;-121.934;2022-10-04T21:53:18;26.50;99.90
20200;DHT22;36284;37.236;-121.934;2022-10-04T21:55:46;26.50;99.90
20200;DHT22;36284;37.236;-121.934;2022-10-04T21:58:13;26.40;99.90
20200;DHT22;36284;37.236;-121.934;2022-10-04T22:00:40;26.10;99.90
20200;DHT22;36284;37.236;-121.934;2022-10-04T22:03:07;26.10;99.90
20200;DHT22;36284;37.236;-121.934;2022-10-04T22:05:34;25.90;99.90
20200;DHT22;36284;37.236;-121.934;2022-10-04T22:08:01;26.40;99.90
20200;DHT22;36284;37.236;-121.934;2022-10-04T22:10:28;26.80;99.90
20200;DHT22;36284;37.236;-121.934;2022-10-04T22:12:55;26.70;99.90
20200;DHT22;36284;37.236;-121.934;2022-10-04T22:15:24;26.80;99.90
20200;DHT22;36284;37.236;-121.934;2022-10-04T22:17:51;26.60;99.90
20200;DHT22;36284;37.236;-121.934;2022-10-04T22:20:18;26.60;99.90
20200;DHT22;36284;37.236;-121.934;2022-10-04T22:22:45;26.10;99.90
20200;DHT22;36284;37.236;-121.934;2022-10-04T22:25:21;26.00;99.90
20200;DHT22;36284;37.236;-121.934;2022-10-04T22:27:48;25.90;99.90
20200;DHT22;36284;37.236;-121.934;2022-10-04T22:30:23;25.90;99.90
20200;DHT22;36284;37.236;-121.934;2022-10-04T22:32:51;26.10;99.90
20200;DHT22;36284;37.236;-121.934;2022-10-04T22:35:19;26.00;99.90
20200;DHT22;36284;37.236;-121.934;2022-10-04T22:37:47;25.80;99.90
20200;DHT22;36284;37.236;-121.934;2022-10-04T22:40:17;26.10;99.90
20200;DHT22;36284;37.236;-121.934;2022-10-04T22:42:48;26.30;99.90
20200;DHT22;36284;37.236;-121.934;2022-10-04T22:47:48;26.10;99.90
20200;DHT22;36284;37.236;-121.934;2022-10-04T22:50:28;26.40;99.90
20200;DHT22;36284;37.236;-121.934;2022-10-04T22:52:56;26.60;99.90
20200;DHT22;36284;37.236;-121.934;2022-10-04T22:55:25;26.60;99.90
20200;DHT22;36284;37.236;-121.934;2022-10-04T22:57:52;26.40;99.90
20200;DHT22;36284;37.236;-121.934;2022-10-04T23:00:19;26.30;99.90
20200;DHT22;36284;37.236;-121.934;2022-10-04T23:02:46;26.40;99.90
20200;DHT22;36284;37.236;-121.934;2022-10-04T23:05:16;26.30;99.90
20200;DHT22;36284;37.236;-121.934;2022-10-04T23:07:44;26.00;99.90
20200;DHT22;36284;37.236;-121.934;2022-10-04T23:10:13;25.90;99.90
20200;DHT22;36284;37.236;-121.934;2022-10-04T23:12:44;26.00;99.90
20200;DHT22;36284;37.236;-121.934;2022-10-04T23:15:19;25.90;99.90
20200;DHT22;36284;37.236;-121.934;2022-10-04T23:17:52;25.70;99.90
20200;DHT22;36284;37.236;-121.934;2022-10-04T23:20:21;25.70;99.90
20200;DHT22;36284;37.236;-121.934;2022-10-04T23:22:50;25.50;99.90
20200;DHT22;36284;37.236;-121.934;2022-10-04T23:25:25;25.80;99.90
20200;DHT22;36284;37.236;-121.934;2022-10-04T23:27:57;26.00;99.90
20200;DHT22;36284;37.236;-121.934;2022-10-04T23:30:26;25.40;99.90
20200;DHT22;36284;37.236;-121.934;2022-10-04T23:32:56;25.50;99.90
20200;DHT22;36284;37.236;-121.934;2022-10-04T23:35:30;25.20;99.90
20200;DHT22;36284;37.236;-121.934;2022-10-04T23:37:59;25.20;99.90
20200;DHT22;36284;37.236;-121.934;2022-10-04T23:40:28;25.30;99.90
20200;DHT22;36284;37.236;-121.934;2022-10-04T23:43:02;25.40;99.90
20200;DHT22;36284;37.236;-121.934;2022-10-04T23:45:29;25.30;99.90
20200;DHT22;36284;37.236;-121.934;2022-10-04T23:47:58;25.30;99.90
20200;DHT22;36284;37.236;-121.934;2022-10-04T23:50:30;25.20;99.90
20200;DHT22;36284;37.236;-121.934;2022-10-04T23:53:01;25.00;99.90
20200;DHT22;36284;37.236;-121.934;2022-10-04T23:55:36;25.10;99.90
20200;DHT22;36284;37.236;-121.934;2022-10-04T23:58:15;25.30;99.90
